サンクトペテルブルク の空港の天気 - METARとTAF

プルコヴォ空港(サンクトペテルブルグ) ( ULLI / LED ) - ロシア サンクトペテルブルク
飛行場実況気象(Metar)
観測時間05/23 03:30 MSK (05/23 00:30 UTC)
風向・風速南 4m/s
視程10km以上
天気現象
全天の4割程度の雲 雲底高度 910m
全天の8割程度の雲 雲底高度 1400m
気温14℃
湿度67%
気圧1019hPa
METARULLI 230030Z 19004MPS 160V240 9999 SCT030CB BKN046 14/08 Q1019 R28R/090060 NOSIG
過去の天気等 Google飛行場航空写真 Wunderground天気予報

過去48時間のMETAR

飛行場予報(TAF)
発表時間: 5/23 01:59 MSK (5/22 22:59 UTC)
予報対象時間: 23日3時 MSK ~ 24日3時 MSK
風向・風速南南西 3m/s
視程10km以上
全天の8割程度の雲 雲底高度 610m
23日3時 MSK ~ 23日9時 MSK に一時的に
風向・風速南 3m/s
視程3,100m
天気現象弱いしゅう雨 もや
全天の8割程度の雲 雲底高度 340m
全天の8割程度の積乱雲 雲底高度 610m
23日9時 MSK ~ 23日11時 MSK に徐々に
風向・風速西 3m/s 瞬間風速 8m/s
23日18時 MSK ~ 24日3時 MSK に一時的に
視程3,100m
天気現象弱いしゅう雨
全天の8割程度の雲 雲底高度 340m
全天の8割程度の積乱雲 雲底高度 610m
TAF ULLI 222259Z 2300/2324 20003MPS 9999 BKN020
TEMPO 2300/2306 17003MPS 3100 -SHRA BR BKN011 BKN020CB
BECMG 2306/2308 27003G08MPS
TEMPO 2315/2324 3100 -SHRA BKN011 BKN020CB